Time;durP1;ratioP1;P1;durP2;ratioP2;P2;SDS_P1;SDS_P2;PMS_P1;PMS_P2;Temp;Humidity;BMP_temperature;BMP_pressure;BME280_temperature;BME280_humidity;BME280_pressure;Samples;Min_cycle;Max_cycle;Signal;HPM_P1;HPM_P2
2023/01/04 00:01:32;;;;;;;3.38;0.60;;;8.50;96.40;;;;;;4917457;29;20495;-87
2023/01/04 00:04:21;;;;;;;3.30;0.75;;;8.50;96.50;;;;;;4886903;29;20052;-87
2023/01/04 00:06:58;;;;;;;2.30;0.77;;;8.60;96.50;;;;;;4920206;29;20108;-87
2023/01/04 00:09:56;;;;;;;2.92;0.85;;;8.50;96.50;;;;;;4918316;29;20040;-88
2023/01/04 00:12:30;;;;;;;3.83;0.90;;;8.60;96.60;;;;;;4902023;29;20112;-88
2023/01/04 00:15:11;;;;;;;3.85;1.30;;;8.50;96.70;;;;;;4902418;29;20048;-87
2023/01/04 00:17:43;;;;;;;5.75;1.02;;;8.50;96.80;;;;;;4917573;29;20044;-87
2023/01/04 00:20:16;;;;;;;3.03;1.13;;;8.40;96.90;;;;;;4917442;29;20044;-87
2023/01/04 00:22:57;;;;;;;5.00;1.30;;;8.40;97.10;;;;;;4916989;29;20044;-86
2023/01/04 00:25:25;;;;;;;2.75;1.00;;;8.40;97.20;;;;;;4901194;29;20044;-87
2023/01/04 00:28:04;;;;;;;3.65;0.90;;;8.40;97.30;;;;;;4900183;29;20067;-87
2023/01/04 00:30:33;;;;;;;4.57;0.90;;;8.40;97.30;;;;;;4917078;29;20044;-86
2023/01/04 00:33:02;;;;;;;3.85;1.60;;;8.40;97.40;;;;;;4901136;29;20078;-87
2023/01/04 00:35:35;;;;;;;4.68;1.48;;;8.40;97.50;;;;;;4917155;29;20151;-87
2023/01/04 00:38:12;;;;;;;4.13;1.27;;;8.40;97.60;;;;;;4902235;29;20491;-87
2023/01/04 00:40:46;;;;;;;4.03;1.25;;;8.30;97.70;;;;;;4917050;29;20046;-88
2023/01/04 00:44:02;;;;;;;;;;;;;;;;;;;;;
2023/01/04 00:47:57;;;;;;;;;;;;;;;;;;;;;
2023/01/04 00:50:38;;;;;;;3.50;1.33;;;8.40;98.00;;;;;;4898285;29;20088;-90
2023/01/04 00:53:59;;;;;;;5.35;1.10;;;8.30;98.10;;;;;;4892740;29;20495;-89
2023/01/04 01:01:45;;;;;;;4.45;1.45;;;8.40;98.20;;;;;;4915229;29;20041;-89
2023/01/04 01:05:06;;;;;;;3.88;1.10;;;8.30;98.30;;;;;;4931184;29;20048;-90
2023/01/04 01:07:47;;;;;;;5.65;0.82;;;8.40;98.30;;;;;;4904995;29;20044;-90
2023/01/04 01:10:32;;;;;;;3.47;1.20;;;8.40;98.40;;;;;;4917887;29;20052;-89
2023/01/04 01:13:26;;;;;;;2.83;0.80;;;8.40;98.40;;;;;;4889014;29;20044;-89
2023/01/04 01:16:03;;;;;;;2.70;0.90;;;8.40;98.50;;;;;;4901204;29;20052;-89
2023/01/04 01:18:53;;;;;;;;;;;8.40;98.50;;;;;;4908841;29;20046;-90
2023/01/04 01:21:31;;;;;;;6.03;1.10;;;8.40;98.70;;;;;;4901778;29;19962;-89
2023/01/04 01:24:01;;;;;;;4.63;1.20;;;8.40;98.70;;;;;;4886651;29;20068;-89
2023/01/04 01:26:31;;;;;;;3.60;1.00;;;8.40;98.70;;;;;;4916207;29;20047;-89
2023/01/04 01:29:02;;;;;;;2.35;0.98;;;8.50;98.80;;;;;;4901466;29;20059;-91
2023/01/04 01:31:31;;;;;;;3.45;0.90;;;8.50;98.90;;;;;;4900818;29;20066;-90
2023/01/04 01:34:15;;;;;;;3.83;1.08;;;8.50;98.90;;;;;;4903781;29;20525;-90
2023/01/04 01:36:42;;;;;;;5.95;1.15;;;8.60;99.00;;;;;;4900958;29;20055;-91
2023/01/04 01:39:09;;;;;;;3.42;1.15;;;8.60;99.20;;;;;;4904674;29;20122;-91
2023/01/04 01:41:37;;;;;;;3.90;1.10;;;8.60;99.20;;;;;;4905316;29;20044;-90
2023/01/04 01:44:31;;;;;;;3.20;0.98;;;8.60;99.20;;;;;;4920912;29;20451;-90
2023/01/04 01:47:02;;;;;;;2.38;0.82;;;8.70;99.20;;;;;;4905153;29;20059;-91
2023/01/04 01:49:29;;;;;;;3.47;0.95;;;8.70;99.30;;;;;;4905236;29;20082;-90
2023/01/04 01:52:10;;;;;;;3.35;1.20;;;8.70;99.30;;;;;;4905172;29;20058;-91
2023/01/04 01:54:51;;;;;;;3.33;0.82;;;8.70;99.40;;;;;;4904591;29;20127;-90
2023/01/04 01:57:23;;;;;;;3.20;1.10;;;8.70;99.40;;;;;;4920397;29;20063;-90
2023/01/04 02:00:15;;;;;;;4.15;1.10;;;8.70;99.40;;;;;;4907429;29;20040;-90
2023/01/04 02:03:26;;;;;;;2.45;0.65;;;8.70;99.50;;;;;;4920464;29;20076;-90
2023/01/04 02:05:57;;;;;;;2.30;0.93;;;8.80;99.50;;;;;;4916061;29;20056;-90
2023/01/04 02:08:29;;;;;;;2.05;0.70;;;8.70;99.60;;;;;;4904592;29;20451;-90
2023/01/04 02:10:57;;;;;;;3.03;1.00;;;8.80;99.60;;;;;;4904744;29;20052;-90
2023/01/04 02:16:37;;;;;;;2.67;1.00;;;8.80;99.70;;;;;;4918936;29;20047;-90
2023/01/04 02:19:47;;;;;;;4.15;1.20;;;8.80;99.70;;;;;;4904856;29;20052;-89
2023/01/04 02:22:38;;;;;;;2.72;0.93;;;8.90;99.90;;;;;;4919772;29;20048;-90
2023/01/04 02:25:26;;;;;;;2.25;1.00;;;8.90;99.80;;;;;;4901796;29;20052;-90
2023/01/04 02:28:35;;;;;;;3.45;1.10;;;9.00;99.80;;;;;;4905177;29;20135;-90
2023/01/04 02:31:17;;;;;;;2.92;1.20;;;9.00;99.90;;;;;;4895860;29;20044;-90
2023/01/04 02:34:06;;;;;;;1.98;0.90;;;9.00;99.90;;;;;;4904806;29;20131;-90
2023/01/04 02:36:47;;;;;;;3.33;0.93;;;9.00;99.90;;;;;;4904414;29;20044;-91
2023/01/04 02:39:42;;;;;;;1.95;0.98;;;9.00;99.90;;;;;;4920125;29;20517;-91
2023/01/04 02:46:37;;;;;;;3.00;1.00;;;9.10;99.90;;;;;;4952116;29;20080;-92
2023/01/04 02:52:12;;;;;;;1.33;0.70;;;9.10;99.90;;;;;;4908194;29;20048;-91
2023/01/04 02:54:47;;;;;;;4.28;1.10;;;9.10;99.90;;;;;;4900954;29;20056;-91
2023/01/04 02:58:02;;;;;;;1.60;0.98;;;9.10;99.90;;;;;;4905636;29;20055;-91
2023/01/04 03:08:06;;;;;;;2.22;0.77;;;9.30;99.90;;;;;;4918903;29;20052;-91
2023/01/04 03:12:30;;;;;;;2.03;0.73;;;9.20;99.90;;;;;;4903098;29;20052;-90
2023/01/04 03:14:10;;;;;;;1.98;0.70;;;9.30;99.90;;;;;;4919283;29;20447;-90
2023/01/04 03:17:13;;;;;;;1.35;0.68;;;9.30;99.90;;;;;;4901690;29;20071;-90
2023/01/04 03:19:50;;;;;;;3.42;0.80;;;9.30;99.90;;;;;;4889647;29;20441;-87
2023/01/04 03:37:31;;;;;;;1.70;0.80;;;9.40;99.90;;;;;;4918525;29;20056;-88
2023/01/04 03:49:38;;;;;;;2.45;0.85;;;9.50;99.90;;;;;;4918222;29;20392;-88
2023/01/04 03:52:28;;;;;;;1.40;0.70;;;9.50;99.90;;;;;;4918314;29;20071;-90
2023/01/04 03:55:04;;;;;;;1.45;0.73;;;9.60;99.90;;;;;;4904001;29;20103;-88
2023/01/04 03:57:40;;;;;;;3.20;0.90;;;9.60;99.90;;;;;;4903236;29;20051;-88
2023/01/04 04:00:20;;;;;;;1.30;0.90;;;9.60;99.90;;;;;;4902681;29;20406;-88
2023/01/04 04:02:58;;;;;;;1.90;0.93;;;9.70;99.90;;;;;;4902579;29;20055;-87
2023/01/04 04:08:28;;;;;;;2.75;1.08;;;9.70;99.90;;;;;;4914504;29;20053;-88
2023/01/04 04:14:16;;;;;;;;;;;;;;;;;;;;;
2023/01/04 04:16:43;;;;;;;1.70;0.90;;;9.80;99.90;;;;;;4903686;29;20063;-88
2023/01/04 04:19:36;;;;;;;2.15;1.05;;;9.80;99.90;;;;;;4904770;29;20044;-89
2023/01/04 04:22:08;;;;;;;2.40;1.00;;;9.80;99.90;;;;;;4902594;29;20040;-89
2023/01/04 04:24:40;;;;;;;2.08;1.05;;;9.90;99.90;;;;;;4902505;29;20047;-87
2023/01/04 04:27:07;;;;;;;1.70;0.80;;;9.90;99.90;;;;;;4917784;29;20036;-88
2023/01/04 04:29:37;;;;;;;1.65;0.90;;;9.90;99.90;;;;;;4917431;29;20052;-88
2023/01/04 04:32:25;;;;;;;2.30;1.42;;;9.90;99.90;;;;;;4917547;29;20558;-88
2023/01/04 04:34:53;;;;;;;2.47;1.65;;;10.00;99.90;;;;;;4917365;29;20182;-88
2023/01/04 04:37:25;;;;;;;3.13;1.33;;;10.00;99.90;;;;;;4887151;29;20052;-88
2023/01/04 04:39:53;;;;;;;3.22;1.88;;;10.00;99.90;;;;;;4917366;29;20083;-88
2023/01/04 04:42:27;;;;;;;3.03;1.20;;;10.10;99.90;;;;;;4917208;29;20048;-89
2023/01/04 04:44:56;;;;;;;3.97;1.30;;;10.10;99.90;;;;;;4917130;29;20096;-87
2023/01/04 04:47:24;;;;;;;2.17;1.27;;;10.10;99.90;;;;;;4901657;29;20055;-87
2023/01/04 04:50:08;;;;;;;;;;;;;;;;;;;;;
2023/01/04 04:52:41;;;;;;;2.22;1.00;;;10.10;99.90;;;;;;4932893;29;20052;-87
2023/01/04 04:55:08;;;;;;;4.18;1.08;;;10.20;99.90;;;;;;4917115;29;20056;-87
2023/01/04 04:57:42;;;;;;;2.63;1.17;;;10.20;99.90;;;;;;4901550;29;20052;-87
2023/01/04 05:00:10;;;;;;;3.28;1.40;;;10.20;99.90;;;;;;4916883;29;20108;-87
2023/01/04 05:02:41;;;;;;;3.60;1.20;;;10.20;99.90;;;;;;4901136;29;20048;-87
2023/01/04 05:05:11;;;;;;;1.67;0.98;;;10.20;99.90;;;;;;4901053;29;20044;-87
2023/01/04 05:07:47;;;;;;;2.78;1.45;;;10.20;99.90;;;;;;4900972;29;20048;-88
2023/01/04 05:10:26;;;;;;;4.30;1.85;;;10.30;99.90;;;;;;4909618;29;20047;-87
2023/01/04 05:12:58;;;;;;;2.70;1.40;;;10.30;99.90;;;;;;4901833;29;20048;-87
2023/01/04 05:15:39;;;;;;;3.28;1.40;;;10.30;99.90;;;;;;4902989;29;20040;-87
2023/01/04 05:18:12;;;;;;;3.25;1.40;;;10.30;99.90;;;;;;4901178;29;20052;-88
2023/01/04 05:20:51;;;;;;;1.80;1.00;;;10.30;99.90;;;;;;4901983;29;20052;-88
2023/01/04 05:23:32;;;;;;;2.40;1.58;;;10.30;99.90;;;;;;4916534;29;20040;-88
2023/01/04 05:26:03;;;;;;;2.95;1.63;;;10.30;99.90;;;;;;4901752;29;20049;-88
2023/01/04 05:28:34;;;;;;;3.45;1.60;;;10.30;99.90;;;;;;4886796;29;20063;-87
2023/01/04 05:31:01;;;;;;;2.20;1.48;;;10.40;99.90;;;;;;4900524;29;20052;-87
2023/01/04 05:33:43;;;;;;;;;;;;;;;;;;;;;
2023/01/04 05:36:14;;;;;;;4.20;1.75;;;10.40;99.90;;;;;;4918362;29;20068;-88
2023/01/04 05:38:42;;;;;;;2.60;1.45;;;10.30;99.90;;;;;;4901706;29;20447;-90
2023/01/04 05:44:48;;;;;;;2.75;1.40;;;10.40;99.90;;;;;;4908935;29;20048;-91
2023/01/04 06:02:07;;;;;;;;;;;;;;;;;;;;;
2023/01/04 06:05:46;;;;;;;2.47;1.20;;;10.40;99.90;;;;;;4758508;30;20031;-93
2023/01/04 06:08:55;;;;;;;2.50;1.60;;;10.40;99.90;;;;;;4768390;30;20040;-91
2023/01/04 06:11:33;;;;;;;6.57;1.50;;;10.40;99.90;;;;;;4742123;30;20044;-91
2023/01/04 06:14:01;;;;;;;4.57;1.70;;;10.40;99.90;;;;;;4749886;29;20074;-90
2023/01/04 06:16:40;;;;;;;2.58;1.70;;;10.40;99.90;;;;;;4795651;29;20551;-94
2023/01/04 06:19:13;;;;;;;2.92;1.92;;;10.50;99.90;;;;;;4851581;29;20516;-93
2023/01/04 06:22:04;;;;;;;;;;;;;;;;;;;;;
2023/01/04 06:25:03;;;;;;;2.63;1.75;;;10.50;99.90;;;;;;4863731;29;20095;-95
2023/01/04 06:27:53;;;;;;;;;;;;;;;;;;;;;
2023/01/04 06:31:06;;;;;;;3.17;1.20;;;10.60;99.90;;;;;;4833700;29;20464;-92
2023/01/04 06:33:34;;;;;;;2.30;1.10;;;10.60;99.90;;;;;;4828608;29;20053;-89
2023/01/04 06:37:08;;;;;;;;;;;;;;;;;;;;;
2023/01/04 06:40:53;;;;;;;;;;;;;;;;;;;;;
2023/01/04 06:43:41;;;;;;;2.47;1.05;;;10.60;99.90;;;;;;4857087;29;20046;-91
2023/01/04 06:46:18;;;;;;;2.90;1.25;;;10.60;99.90;;;;;;4854451;29;20055;-91
2023/01/04 06:49:00;;;;;;;3.75;1.50;;;10.60;99.90;;;;;;4870119;29;20485;-91
2023/01/04 06:51:48;;;;;;;;;;;;;;;;;;;;;
2023/01/04 06:54:38;;;;;;;3.15;1.38;;;10.70;99.90;;;;;;4851646;29;20062;-92
2023/01/04 06:57:31;;;;;;;4.05;1.65;;;10.70;99.90;;;;;;4849211;29;20061;-91
2023/01/04 07:00:07;;;;;;;4.40;1.67;;;10.80;99.90;;;;;;4848128;29;20046;-91
2023/01/04 07:02:38;;;;;;;3.67;2.00;;;10.70;99.90;;;;;;4848229;29;20070;-91
2023/01/04 07:05:28;;;;;;;3.75;2.13;;;10.80;99.90;;;;;;4846754;29;20050;-91
2023/01/04 07:08:18;;;;;;;2.65;1.70;;;10.80;99.90;;;;;;4859503;29;20054;-91
2023/01/04 07:10:53;;;;;;;4.38;2.22;;;10.80;99.90;;;;;;4847696;29;20045;-91
2023/01/04 07:39:42;;;;;;;2.58;1.50;;;10.90;99.90;;;;;;5309071;23;19962;-90
2023/01/04 07:42:19;;;;;;;3.75;1.77;;;10.90;99.90;;;;;;4866263;29;20520;-90
2023/01/04 07:44:53;;;;;;;2.50;1.80;;;10.90;99.90;;;;;;4873128;29;20177;-90
2023/01/04 07:47:23;;;;;;;4.40;2.00;;;10.90;99.90;;;;;;4847970;29;20058;-90
2023/01/04 07:49:53;;;;;;;3.45;1.80;;;10.90;99.90;;;;;;4872726;29;20057;-89
2023/01/04 07:52:32;;;;;;;3.60;1.98;;;10.90;99.90;;;;;;4880545;29;20057;-90
2023/01/04 07:55:08;;;;;;;4.50;1.50;;;10.90;99.90;;;;;;4852951;29;20135;-89
2023/01/04 07:57:38;;;;;;;4.18;1.73;;;11.00;99.90;;;;;;4865382;29;20056;-90
2023/01/04 08:00:29;;;;;;;3.20;2.05;;;11.00;99.90;;;;;;4850910;29;20052;-90
2023/01/04 08:03:09;;;;;;;5.05;2.30;;;11.00;99.90;;;;;;4875082;29;20100;-90
2023/01/04 08:05:41;;;;;;;3.22;1.80;;;11.00;99.90;;;;;;4865812;29;20045;-90
2023/01/04 08:08:15;;;;;;;4.25;1.42;;;11.00;99.90;;;;;;4866215;29;20056;-90
2023/01/04 08:11:31;;;;;;;2.85;1.38;;;11.00;99.90;;;;;;4891570;29;20079;-90
2023/01/04 08:14:13;;;;;;;4.60;2.00;;;11.00;99.90;;;;;;4867527;29;20087;-89
2023/01/04 08:17:27;;;;;;;5.13;1.73;;;11.00;99.90;;;;;;4865234;29;20050;-92
2023/01/04 08:20:08;;;;;;;4.60;2.47;;;11.00;99.90;;;;;;4863341;29;20057;-89
2023/01/04 08:22:38;;;;;;;4.38;2.72;;;11.00;99.90;;;;;;4835935;29;20081;-91
2023/01/04 08:25:37;;;;;;;4.97;2.42;;;11.00;99.90;;;;;;4867192;29;20055;-90
2023/01/04 08:29:09;;;;;;;5.90;2.92;;;11.10;99.90;;;;;;4866997;29;20041;-91
2023/01/04 08:31:53;;;;;;;9.52;3.08;;;11.10;99.90;;;;;;4880219;29;20060;-88
2023/01/04 08:34:32;;;;;;;5.53;3.03;;;11.00;99.90;;;;;;4880233;29;20049;-90
2023/01/04 08:37:00;;;;;;;7.90;3.30;;;11.10;99.90;;;;;;4863876;29;20388;-86
2023/01/04 08:39:47;;;;;;;6.15;2.58;;;11.10;99.90;;;;;;4838329;29;20057;-88
2023/01/04 08:42:21;;;;;;;7.75;4.03;;;11.20;99.90;;;;;;4861257;29;20041;-87
2023/01/04 08:44:59;;;;;;;3.83;2.50;;;11.20;99.90;;;;;;4861081;29;20053;-87
2023/01/04 08:48:01;;;;;;;4.22;2.30;;;11.10;99.90;;;;;;4856850;29;20046;-89
2023/01/04 08:50:53;;;;;;;3.03;1.63;;;11.20;99.90;;;;;;4845913;29;20049;-88
2023/01/04 08:54:23;;;;;;;;;;;;;;;;;;;;;
2023/01/04 08:57:12;;;;;;;5.18;2.65;;;11.20;99.90;;;;;;4857246;29;20491;-92
2023/01/04 08:59:57;;;;;;;4.77;2.30;;;11.20;99.90;;;;;;4861326;29;20395;-92
2023/01/04 09:02:38;;;;;;;3.75;2.50;;;11.20;99.90;;;;;;4861150;29;20049;-91
2023/01/04 09:05:32;;;;;;;;;;;;;;;;;;;;;
2023/01/04 09:08:39;;;;;;;4.85;2.90;;;11.30;99.90;;;;;;4849982;29;20061;-91
2023/01/04 09:14:43;;;;;;;4.82;2.47;;;11.30;99.90;;;;;;4828185;29;20049;-90
2023/01/04 09:17:17;;;;;;;4.85;2.08;;;11.30;99.90;;;;;;4823641;29;20111;-90
2023/01/04 09:24:40;;;;;;;3.55;2.35;;;11.30;99.90;;;;;;4744706;30;20112;-90
2023/01/04 09:27:23;;;;;;;4.88;2.80;;;11.40;99.90;;;;;;4738742;30;20044;-90
2023/01/04 09:30:31;;;;;;;;;;;;;;;;;;;;;
2023/01/04 09:34:13;;;;;;;;;;;;;;;;;;;;;
2023/01/04 09:40:52;;;;;;;6.95;3.67;;;11.40;99.90;;;;;;4801512;29;20055;-90
2023/01/04 09:44:08;;;;;;;4.75;2.70;;;11.50;99.90;;;;;;4788688;29;20526;-90
2023/01/04 09:46:52;;;;;;;6.75;2.72;;;11.50;99.90;;;;;;4810834;29;20074;-89
2023/01/04 09:50:22;;;;;;;;;;;;;;;;;;;;;
2023/01/04 09:53:38;;;;;;;10.85;3.65;;;11.50;99.90;;;;;;4824011;29;20046;-90
2023/01/04 09:57:06;;;;;;;4.80;2.90;;;11.50;99.90;;;;;;4766255;30;20049;-91
2023/01/04 10:00:28;;;;;;;5.03;2.90;;;11.50;99.90;;;;;;4754673;30;20056;-90
2023/01/04 10:03:31;;;;;;;6.80;3.30;;;11.50;99.90;;;;;;4717364;30;20052;-89
2023/01/04 10:06:15;;;;;;;4.72;3.17;;;11.60;99.90;;;;;;4751089;30;20049;-89
2023/01/04 10:09:11;;;;;;;7.05;2.70;;;11.60;99.90;;;;;;4756119;30;20143;-88
2023/01/04 10:12:02;;;;;;;5.05;2.20;;;11.60;99.90;;;;;;4785890;29;20055;-89
2023/01/04 10:14:42;;;;;;;5.13;2.13;;;11.60;99.90;;;;;;4808174;29;20042;-88
2023/01/04 10:17:23;;;;;;;6.28;2.58;;;11.60;99.90;;;;;;4804262;29;20066;-89
2023/01/04 10:20:32;;;;;;;4.55;2.45;;;11.70;99.90;;;;;;4866775;29;20057;-89
2023/01/04 10:23:52;;;;;;;;;;;;;;;;;;;;;
2023/01/04 10:27:13;;;;;;;4.43;2.33;;;11.70;99.90;;;;;;4869411;29;20085;-89
2023/01/04 10:30:04;;;;;;;4.15;2.42;;;11.70;99.90;;;;;;4863805;29;20141;-89
2023/01/04 10:33:10;;;;;;;4.80;2.22;;;11.70;99.90;;;;;;4868605;29;20149;-89
2023/01/04 10:35:50;;;;;;;3.13;2.08;;;11.70;99.90;;;;;;4868921;29;20080;-89
2023/01/04 10:38:29;;;;;;;4.10;2.00;;;11.60;99.90;;;;;;4879027;29;20053;-89
2023/01/04 10:41:09;;;;;;;3.97;2.42;;;11.70;99.90;;;;;;4847975;29;20054;-90
2023/01/04 10:44:07;;;;;;;3.60;2.13;;;11.70;99.90;;;;;;4847203;29;20056;-89
2023/01/04 10:47:07;;;;;;;3.35;1.80;;;11.70;99.90;;;;;;4849369;29;20097;-89
2023/01/04 10:53:09;;;;;;;4.63;2.08;;;11.70;99.90;;;;;;4875338;29;20054;-90
2023/01/04 10:56:07;;;;;;;4.38;2.00;;;11.70;99.90;;;;;;4801147;29;20150;-86
2023/01/04 10:59:12;;;;;;;3.33;2.17;;;11.70;99.90;;;;;;4803688;29;20069;-87
2023/01/04 11:02:48;;;;;;;;;;;;;;;;;;;;;
2023/01/04 11:06:04;;;;;;;4.85;2.35;;;11.80;99.90;;;;;;4819617;29;20058;-87
2023/01/04 11:09:12;;;;;;;4.07;2.03;;;11.70;99.90;;;;;;4806804;29;20047;-89
2023/01/04 11:12:36;;;;;;;4.35;2.45;;;11.80;99.90;;;;;;4797502;29;20421;-89
2023/01/04 11:15:23;;;;;;;3.38;1.58;;;11.80;99.90;;;;;;4796510;29;20058;-90
2023/01/04 11:18:30;;;;;;;;;;;;;;;;;;;;;
2023/01/04 11:26:12;;;;;;;;;;;;;;;;;;;;;
2023/01/04 11:30:07;;;;;;;5.00;2.33;;;11.80;99.90;;;;;;4758764;30;20047;-88
2023/01/04 11:32:55;;;;;;;2.97;1.67;;;11.80;99.90;;;;;;4774177;29;20141;-90
2023/01/04 11:36:53;;;;;;;3.10;1.60;;;11.80;99.90;;;;;;4822367;29;20053;-90
2023/01/04 11:39:46;;;;;;;4.05;2.20;;;11.80;99.90;;;;;;4825417;29;20394;-90
2023/01/04 11:42:35;;;;;;;3.05;1.90;;;11.80;99.90;;;;;;4827070;29;20054;-90
2023/01/04 11:45:25;;;;;;;6.10;1.92;;;11.80;99.90;;;;;;4824507;29;20053;-90
2023/01/04 11:47:57;;;;;;;4.35;2.03;;;11.90;99.90;;;;;;4838337;29;20083;-89
2023/01/04 11:50:55;;;;;;;;;;;;;;;;;;;;;
2023/01/04 11:53:36;;;;;;;3.50;1.90;;;11.90;99.90;;;;;;4862092;29;20106;-89
2023/01/04 11:56:20;;;;;;;3.25;1.90;;;11.90;99.90;;;;;;4864436;29;20053;-90
2023/01/04 11:59:14;;;;;;;2.72;1.65;;;11.90;99.90;;;;;;4845205;29;20050;-89
2023/01/04 12:02:27;;;;;;;3.00;1.63;;;11.90;99.90;;;;;;4849063;29;20056;-90
2023/01/04 12:05:27;;;;;;;4.50;1.70;;;11.90;99.90;;;;;;4846127;29;20046;-88
2023/01/04 12:08:33;;;;;;;3.25;2.00;;;11.90;99.90;;;;;;4829118;29;20054;-89
2023/01/04 12:11:21;;;;;;;7.00;1.58;;;11.90;99.90;;;;;;4837137;29;20053;-89
2023/01/04 12:14:01;;;;;;;2.92;1.65;;;12.00;99.90;;;;;;4829733;29;20060;-90
2023/01/04 12:16:54;;;;;;;3.88;2.08;;;12.00;99.90;;;;;;4835069;29;20062;-89
2023/01/04 12:19:31;;;;;;;3.08;2.20;;;12.00;99.90;;;;;;4883330;29;20042;-89
2023/01/04 12:22:28;;;;;;;3.80;2.78;;;12.00;99.90;;;;;;4881005;29;20046;-89
2023/01/04 12:25:22;;;;;;;5.20;2.90;;;12.00;99.90;;;;;;4864262;29;20136;-89
2023/01/04 12:27:55;;;;;;;4.75;2.65;;;12.10;99.90;;;;;;4861513;29;20118;-89
2023/01/04 12:31:17;;;;;;;;;;;;;;;;;;;;;
2023/01/04 12:34:24;;;;;;;4.63;2.58;;;12.10;99.90;;;;;;4853109;29;20061;-91
2023/01/04 12:36:59;;;;;;;5.07;3.20;;;12.10;99.90;;;;;;4846526;29;20411;-90
2023/01/04 12:40:19;;;;;;;5.22;3.90;;;12.10;99.90;;;;;;4848305;29;20061;-90
2023/01/04 12:43:52;;;;;;;;;;;;;;;;;;;;;
2023/01/04 13:02:52;;;;;;;;;;;;;;;;;;;;;
2023/01/04 14:20:52;;;;;;;;;;;;;;;;;;;;;
2023/01/04 14:24:40;;;;;;;5.85;2.25;;;12.90;99.90;;;;;;4772892;29;20513;-92
2023/01/04 14:28:16;;;;;;;9.10;2.17;;;12.90;99.90;;;;;;4794800;29;20077;-88
2023/01/04 14:31:18;;;;;;;6.15;2.35;;;12.90;99.90;;;;;;4767123;30;20082;-88
2023/01/04 14:33:52;;;;;;;5.40;2.17;;;12.80;99.90;;;;;;4772976;30;20062;-86
2023/01/04 14:55:16;;;;;;;5.97;1.77;;;12.80;99.20;;;;;;4765347;29;20034;-92
2023/01/04 14:59:25;;;;;;;4.93;1.80;;;12.80;99.00;;;;;;4692850;30;20118;-93
2023/01/04 15:03:26;;;;;;;5.60;1.98;;;12.80;98.80;;;;;;4724208;30;20071;-90
2023/01/04 15:11:33;;;;;;;;;;;;;;;;;;;;;
2023/01/04 15:36:09;;;;;;;8.68;2.03;;;12.70;98.40;;;;;;4661746;30;20049;-89
2023/01/04 15:38:48;;;;;;;;;;;;;;;;;;;;;
2023/01/04 15:43:36;;;;;;;12.88;2.70;;;12.60;98.50;;;;;;4688173;30;20517;-91
2023/01/04 15:46:43;;;;;;;8.40;1.85;;;12.60;98.50;;;;;;4580015;31;20092;-91
2023/01/04 15:49:39;;;;;;;8.93;2.22;;;12.60;98.40;;;;;;4608226;30;20043;-91
2023/01/04 15:52:46;;;;;;;6.47;1.63;;;12.60;98.40;;;;;;4663144;30;20157;-91
2023/01/04 15:55:57;;;;;;;12.30;2.88;;;12.50;98.30;;;;;;4677305;30;20055;-90
2023/01/04 16:05:10;;;;;;;;;;;;;;;;;;;;;
2023/01/04 16:08:48;;;;;;;7.30;1.77;;;12.40;98.20;;;;;;4727584;30;20048;-90
2023/01/04 16:15:45;;;;;;;10.63;2.05;;;12.40;98.30;;;;;;4669213;30;20054;-86
2023/01/04 16:18:28;;;;;;;10.57;1.83;;;12.30;98.30;;;;;;4733853;30;20084;-88
2023/01/04 16:21:37;;;;;;;11.23;1.42;;;12.30;98.30;;;;;;4707886;30;20063;-88
2023/01/04 16:24:35;;;;;;;13.15;2.55;;;12.30;98.30;;;;;;4735937;30;20090;-88
2023/01/04 16:27:59;;;;;;;;;;;;;;;;;;;;;
2023/01/04 16:31:09;;;;;;;14.77;2.05;;;12.30;98.30;;;;;;4718391;30;20049;-91
2023/01/04 16:41:49;;;;;;;;;;;;;;;;;;;;;
2023/01/04 16:45:08;;;;;;;18.30;2.75;;;12.30;98.00;;;;;;4700332;30;20114;-87
2023/01/04 16:48:47;;;;;;;14.43;2.13;;;12.30;97.90;;;;;;4653907;30;20086;-90
2023/01/04 16:52:11;;;;;;;;;;;;;;;;;;;;;
2023/01/04 17:05:06;;;;;;;12.38;2.63;;;12.40;97.70;;;;;;4671258;30;20057;-95
2023/01/04 17:09:18;;;;;;;14.63;2.95;;;12.40;97.60;;;;;;4673956;30;20042;-90
2023/01/04 17:24:37;;;;;;;13.23;2.65;;;12.40;97.30;;;;;;4648183;30;20054;-94
2023/01/04 17:48:17;;;;;;;14.35;2.88;;;12.30;96.90;;;;;;5070969;23;20066;-90
2023/01/04 18:16:55;;;;;;;19.85;2.92;;;11.90;96.90;;;;;;4673885;30;20066;-92
2023/01/04 18:20:16;;;;;;;16.88;2.97;;;11.80;97.20;;;;;;4659581;30;20054;-86
2023/01/04 18:23:57;;;;;;;18.90;3.53;;;11.70;97.30;;;;;;4658716;30;20050;-87
2023/01/04 18:26:48;;;;;;;;;;;;;;;;;;;;;
2023/01/04 18:50:39;;;;;;;27.85;5.15;;;11.90;97.00;;;;;;4841564;29;20066;-91
2023/01/04 18:58:11;;;;;;;33.00;5.40;;;11.90;97.20;;;;;;4771576;29;20090;-92
2023/01/04 19:11:06;;;;;;;23.70;4.57;;;12.10;96.90;;;;;;4790036;30;20109;-90
2023/01/04 19:14:10;;;;;;;;;;;;;;;;;;;;;
2023/01/04 19:18:20;;;;;;;22.25;5.20;;;12.00;96.90;;;;;;4749806;29;20471;-92
2023/01/04 19:21:17;;;;;;;24.40;5.07;;;11.90;96.80;;;;;;4773898;29;20059;-92
2023/01/04 19:27:50;;;;;;;28.85;6.03;;;11.80;97.10;;;;;;4809790;29;20050;-88
2023/01/04 19:30:52;;;;;;;;;;;11.80;97.20;;;;;;4829724;29;20125;-89
2023/01/04 19:33:26;;;;;;;24.70;4.73;;;11.80;97.30;;;;;;4861518;29;19929;-88
2023/01/04 19:35:56;;;;;;;34.08;6.05;;;11.70;97.50;;;;;;4836864;29;20136;-88
2023/01/04 19:38:29;;;;;;;27.00;5.35;;;11.70;97.60;;;;;;4826703;29;20057;-90
2023/01/04 19:41:35;;;;;;;28.02;5.05;;;11.70;97.60;;;;;;4823344;29;20053;-88
2023/01/04 19:44:26;;;;;;;20.00;4.38;;;11.70;97.50;;;;;;4838530;29;20137;-89
2023/01/04 19:47:35;;;;;;;24.52;5.25;;;11.70;97.40;;;;;;4832480;29;20050;-91
2023/01/04 19:50:29;;;;;;;26.05;4.43;;;11.80;97.20;;;;;;4844698;29;20045;-94
2023/01/04 20:02:29;;;;;;;21.65;4.93;;;11.90;96.70;;;;;;4807659;29;20051;-88
2023/01/04 20:05:37;;;;;;;20.30;4.38;;;11.90;96.70;;;;;;4793380;29;20555;-91
2023/01/04 20:08:50;;;;;;;26.08;4.65;;;11.90;96.60;;;;;;4806473;29;20062;-86
2023/01/04 20:12:24;;;;;;;22.08;5.18;;;11.90;96.40;;;;;;4779549;29;20043;-95
2023/01/04 20:14:58;;;;;;;19.23;3.83;;;11.90;96.40;;;;;;4754848;30;20090;-86
2023/01/04 20:26:46;;;;;;;23.60;4.47;;;11.90;96.10;;;;;;4788976;30;20120;-90
2023/01/04 20:29:13;;;;;;;19.52;3.85;;;11.90;95.80;;;;;;4774409;30;20545;-92
2023/01/04 20:31:43;;;;;;;17.02;3.78;;;11.90;95.70;;;;;;4786473;29;20055;-88
2023/01/04 20:34:13;;;;;;;24.80;4.63;;;11.90;95.70;;;;;;4777106;29;20047;-89
2023/01/04 20:36:40;;;;;;;13.32;2.85;;;11.90;95.70;;;;;;4776318;29;20058;-89
2023/01/04 20:39:10;;;;;;;16.17;3.00;;;11.90;95.40;;;;;;4775963;29;20127;-87
2023/01/04 20:43:31;;;;;;;19.48;3.20;;;11.90;95.20;;;;;;4775998;29;20047;-86
2023/01/04 20:44:38;;;;;;;17.40;3.17;;;12.00;94.90;;;;;;4789926;29;20054;-92
2023/01/04 20:47:38;;;;;;;22.98;4.07;;;12.00;94.90;;;;;;4806607;29;20081;-96
2023/01/04 20:50:11;;;;;;;22.02;4.22;;;12.00;94.70;;;;;;4826487;29;20054;-88
2023/01/04 20:58:25;;;;;;;;;;;;;;;;;;;;;
2023/01/04 21:35:30;;;;;;;22.27;4.03;;;11.90;94.10;;;;;;4846437;29;20118;-90
2023/01/04 21:38:10;;;;;;;21.90;4.17;;;11.80;94.10;;;;;;4829093;29;20147;-93
2023/01/04 21:40:51;;;;;;;18.25;3.42;;;11.80;94.20;;;;;;4808404;29;20057;-88
2023/01/04 21:43:24;;;;;;;27.48;5.32;;;11.80;94.40;;;;;;4812981;29;20092;-92
2023/01/04 21:45:54;;;;;;;18.98;2.97;;;11.70;94.50;;;;;;4811740;29;20141;-90
2023/01/04 21:48:24;;;;;;;27.60;4.68;;;11.70;94.40;;;;;;4812954;29;20053;-92
2023/01/04 21:51:13;;;;;;;21.00;3.40;;;11.70;94.50;;;;;;4815729;29;20106;-95
2023/01/04 21:53:44;;;;;;;22.15;5.15;;;11.80;94.50;;;;;;4813893;29;20088;-90
2023/01/04 21:56:55;;;;;;;24.48;4.30;;;11.80;94.40;;;;;;4815846;29;20061;-93
2023/01/04 21:59:56;;;;;;;27.65;4.55;;;11.80;94.20;;;;;;4800555;29;20133;-92
2023/01/04 22:02:26;;;;;;;17.33;2.85;;;11.80;94.10;;;;;;4800387;29;20046;-91
2023/01/04 22:04:54;;;;;;;20.67;4.25;;;11.80;94.20;;;;;;4816475;29;20054;-93
2023/01/04 22:07:27;;;;;;;26.30;4.43;;;11.80;94.10;;;;;;4816211;29;20050;-91
2023/01/04 22:09:55;;;;;;;20.58;4.35;;;11.80;94.10;;;;;;4832796;29;20046;-91
2023/01/04 22:12:32;;;;;;;17.15;3.60;;;11.80;94.10;;;;;;4816949;29;20045;-89
2023/01/04 22:15:02;;;;;;;22.48;3.78;;;11.80;94.20;;;;;;4815672;29;20053;-90
2023/01/04 22:17:29;;;;;;;22.00;3.88;;;11.70;94.20;;;;;;4815776;29;20137;-88
2023/01/04 22:19:59;;;;;;;15.45;3.28;;;11.80;94.30;;;;;;4816362;29;20106;-91
2023/01/04 22:22:31;;;;;;;25.27;4.70;;;11.80;94.20;;;;;;4831185;29;20457;-88
2023/01/04 22:24:58;;;;;;;21.30;3.55;;;11.70;94.10;;;;;;4815614;29;20046;-89
2023/01/04 22:27:28;;;;;;;15.75;2.90;;;11.70;94.20;;;;;;4815750;29;20080;-91
2023/01/04 22:29:55;;;;;;;19.75;3.67;;;11.60;94.30;;;;;;4798203;29;20046;-88
2023/01/04 22:32:30;;;;;;;18.55;3.08;;;11.50;94.40;;;;;;4816420;29;20046;-94
2023/01/04 22:35:02;;;;;;;21.05;3.90;;;11.50;94.40;;;;;;4848581;29;20092;-92
2023/01/04 22:37:40;;;;;;;12.70;2.50;;;11.50;94.50;;;;;;4849061;29;20057;-92
2023/01/04 22:40:15;;;;;;;19.25;3.40;;;11.50;94.60;;;;;;4836495;29;20053;-89
2023/01/04 22:42:42;;;;;;;23.83;3.40;;;11.40;94.60;;;;;;4849032;29;20057;-92
2023/01/04 22:45:17;;;;;;;17.88;3.42;;;11.50;94.50;;;;;;4848955;29;20131;-94
2023/01/04 22:47:49;;;;;;;14.02;2.75;;;11.50;94.60;;;;;;4848332;29;20081;-89